WMKB

Details ICAO WMKB
Name Butterworth
Region Malaysia (Peninsular Malaysia)
Timezone Asia/Kuala_Lumpur (UTC+8.0)
Plans Departing 12
Arriving 19
Stats Elevation 11 ft / 3 m (AMSL)
Location 5.465917° 100.391166°
Runways 1
Magnetic Variation 0.203° W
Sunrise 2017-12-16 23:21:37 UTC / 2017-12-17 07:21:37 Local
Sunset 2017-12-17 11:09:58 UTC / 2017-12-17 19:09:58 Local
Advertisement - Login to hide

Runways

ID Width Length Bearing (true) Bearing (mag) Surface Threshold Offset Overrun Length
18 150 ft / 46 m 8,043 ft / 2,451 m 183.45° 183.65° Asphalt 0 ft / 0 m 600 ft / 183 m
36 150 ft / 46 m 8,043 ft / 2,451 m 3.45° 3.65° Asphalt 0 ft / 0 m 600 ft / 183 m

Map

Weather


0- 5 10 15 20 25 30 35+ Temperature / ° C

Clouds and Precipitation
Forecast for 2017-12-17 00:00 UTC. Updated 9 minutes ago

Ground ~20,000 ft ~40,000 ft Winds

METAR

WMKB 161900Z VRB03KT 8000 FEW025 SCT140 BKN270 26/25 Q1011 NOSIG

TAF

TAF AMD WMKB 161157Z 1612/1712 29010KT 8000 FEW024 TEMPO 1612/1616 6000 -TSRA FEW017CB

Frequencies

Recorded 122.75 MHz ATIS
Tower 118.30 MHz TWR
Approach 125.80 MHz APP
Departure 128.50 MHz DEP
Ground 134.60 MHz GND
Approach 123.20 MHz APP
Approach 128.50 MHz APP
Warning: Do not use this data for real-world aviation or navigation. No guarantee of current accuracy is given.